Catàleg de serveis del Meteocat
Campanya meteocatpedra

Dades de l'estació automàtica Gimenells

?
?
Resum diari 21:30 TU
Dades diàries de l'estació meteorològica
Temperatura mitjana 13.4 °C
Temperatura màxima 17.7 °C 14:33 TU
Temperatura mínima 8.3 °C 5:27 TU
Humitat relativa mitjana 72%
Precipitació acumulada 0.2 mm
Ratxa màxima del vent (2 m) 37.4 km/h - 93º 17:14 TU
Irradiació solar global 6.5 MJ/m2

El tram horari està expressat en Temps Universal (TU). Cal sumar una hora en horari d'hivern i dues en horari d'estiu per passar a l'hora oficial.

Gimenells

Metadades estació meteorol´gica
Municipi Gimenells i el Pla de la Font
Comarca Segrià
Altitud 259 m
Data alta 10.12.1996
Estat actual Operativa
Dades de període
Període
TU
TM
°C
TX
°C
TN
°C
HRM
%
PPT
mm
VVM (2 m)
km/h
DVM (2 m)
graus
VVX (2 m)
km/h
RS
W/m2
00:00 - 00:30 10.1 10.3 9.8 86 0.0 4.3 118 9.7 0
00:30 - 01:00 10.3 10.4 10.1 87 0.0 5.8 117 10.1 0
01:00 - 01:30 10.1 10.3 9.9 89 0.0 6.8 121 12.2 0
01:30 - 02:00 9.7 9.9 9.6 91 0.0 7.2 111 13.7 0
02:00 - 02:30 9.5 9.6 9.3 92 0.0 7.6 99 12.6 0
02:30 - 03:00 9.2 9.4 8.9 93 0.0 6.1 88 11.2 0
03:00 - 03:30 9.1 9.6 8.5 94 0.0 4.3 68 9.0 0
03:30 - 04:00 9.2 9.5 9.0 95 0.0 6.1 66 12.6 0
04:00 - 04:30 9.8 9.9 9.5 93 0.0 6.8 59 13.3 0
04:30 - 05:00 9.3 9.7 8.7 94 0.0 1.8 68 8.6 0
05:00 - 05:30 8.5 8.7 8.3 97 0.0 0.4 229 2.9 1
05:30 - 06:00 8.8 9.4 8.5 97 0.0 1.4 163 6.1 23
06:00 - 06:30 9.4 9.5 9.3 94 0.0 2.5 166 5.0 56
06:30 - 07:00 9.8 10.4 9.5 93 0.0 5.0 139 10.4 133
07:00 - 07:30 11.6 12.4 10.5 88 0.0 9.7 87 15.8 306
07:30 - 08:00 12.5 12.8 12.2 83 0.0 5.8 112 14.4 133
08:00 - 08:30 11.6 12.1 11.4 89 0.2 10.1 67 19.4 39
08:30 - 09:00 12.0 12.4 11.7 83 0.0 6.8 85 16.6 65
09:00 - 09:30 12.9 13.2 12.4 77 0.0 7.6 67 19.4 130
09:30 - 10:00 13.2 13.4 13.0 68 0.0 17.6 73 34.2 120
10:00 - 10:30 13.7 14.1 13.4 66 0.0 16.2 85 28.8 145
10:30 - 11:00 14.5 14.9 14.1 63 0.0 16.6 92 36.7 203
11:00 - 11:30 14.8 15.1 14.8 62 0.0 16.9 98 29.9 165
11:30 - 12:00 15.3 15.4 15.1 60 0.0 17.6 96 31.3 205
12:00 - 12:30 15.5 15.7 15.3 61 0.0 16.9 83 32.4 185
12:30 - 13:00 16.1 16.2 15.8 60 0.0 15.5 86 28.4 213
13:00 - 13:30 16.5 16.8 16.3 58 0.0 14.4 93 26.3 213
13:30 - 14:00 17.3 17.6 16.8 53 0.0 17.6 89 33.1 314
14:00 - 14:30 17.5 17.6 17.5 53 0.0 15.1 91 29.5 237
14:30 - 15:00 17.6 17.7 17.5 51 0.0 15.5 93 30.6 199
15:00 - 15:30 17.5 17.6 17.5 52 0.0 16.9 96 30.6 160
15:30 - 16:00 17.4 17.6 17.3 52 0.0 18.4 99 34.6 97
16:00 - 16:30 17.2 17.4 17.2 54 0.0 14.0 101 28.1 93
16:30 - 17:00 17.0 17.2 16.8 57 0.0 14.4 92 30.6 103
17:00 - 17:30 17.0 17.1 16.8 53 0.0 19.8 103 37.4 59
17:30 - 18:00 16.7 16.8 16.6 55 0.0 19.1 106 34.6 28
18:00 - 18:30 16.4 16.6 16.2 55 0.0 18.7 118 34.2 16
18:30 - 19:00 15.9 16.2 15.5 56 0.0 15.1 112 29.9 1
19:00 - 19:30 15.4 15.5 15.2 58 0.0 13.3 100 24.1 0
19:30 - 20:00 14.8 15.3 14.5 60 0.0 11.5 96 22.7 0
20:00 - 20:30 14.8 15.1 14.5 56 0.0 15.8 88 34.2 0
20:30 - 21:00 14.6 15.0 14.3 56 0.0 18.0 90 37.4 0
21:00 - 21:30 14.4 14.6 14.3 57 0.0 14.8 102 28.8 0
21:30 - 22:00 14.2 14.4 13.9 57 0.0 15.5 97 30.2 0

Les dades en taronja només han passat un control de qualitat automàtic. Resta pendent la seva validació definitiva.